TimeEST,TemperatureF,Dew PointF,Humidity,Sea Level PressureIn,VisibilityMPH,Wind Direction,Wind SpeedMPH,Gust SpeedMPH,PrecipitationIn,Events,Conditions,WindDirDegrees,DateUTC
12:56 AM,46.9,43.0,86,30.35,10.0,Calm,Calm,-,N/A,,Scattered Clouds,0,2013-01-09 05:56:00
1:56 AM,45.0,42.1,90,30.35,10.0,Calm,Calm,-,N/A,,Scattered Clouds,0,2013-01-09 06:56:00
2:56 AM,43.0,39.9,89,30.37,9.0,Calm,Calm,-,N/A,,Scattered Clouds,0,2013-01-09 07:56:00
3:56 AM,45.0,41.0,86,30.36,10.0,Calm,Calm,-,N/A,,Scattered Clouds,0,2013-01-09 08:56:00
4:56 AM,43.0,39.9,89,30.37,8.0,WNW,3.5,-,N/A,,Scattered Clouds,290,2013-01-09 09:56:00
5:56 AM,46.9,43.0,86,30.38,10.0,Calm,Calm,-,N/A,,Scattered Clouds,0,2013-01-09 10:56:00
6:56 AM,43.0,39.9,89,30.38,8.0,Calm,Calm,-,N/A,,Scattered Clouds,0,2013-01-09 11:56:00
7:56 AM,41.0,37.4,87,30.40,6.0,Calm,Calm,-,N/A,,Scattered Clouds,0,2013-01-09 12:56:00
8:56 AM,51.1,44.1,77,30.42,8.0,Calm,Calm,-,N/A,,Scattered Clouds,0,2013-01-09 13:56:00
9:56 AM,57.0,46.0,67,30.43,10.0,Calm,Calm,-,N/A,,Partly Cloudy,0,2013-01-09 14:56:00
10:56 AM,62.1,48.0,60,30.43,10.0,North,4.6,-,N/A,,Partly Cloudy,350,2013-01-09 15:56:00
11:56 AM,66.0,50.0,56,30.41,10.0,North,4.6,-,N/A,,Scattered Clouds,360,2013-01-09 16:56:00
12:56 PM,70.0,50.0,49,30.38,10.0,Calm,Calm,-,N/A,,Scattered Clouds,0,2013-01-09 17:56:00
1:56 PM,71.1,51.1,49,30.36,10.0,Calm,Calm,-,N/A,,Mostly Cloudy,0,2013-01-09 18:56:00
2:56 PM,71.1,50.0,47,30.36,10.0,East,4.6,-,N/A,,Mostly Cloudy,100,2013-01-09 19:56:00
3:56 PM,69.1,51.1,53,30.36,10.0,SE,4.6,-,N/A,,Mostly Cloudy,130,2013-01-09 20:56:00
4:56 PM,66.9,52.0,59,30.36,10.0,Calm,Calm,-,N/A,,Mostly Cloudy,0,2013-01-09 21:56:00
5:56 PM,64.9,53.1,65,30.38,10.0,Calm,Calm,-,N/A,,Mostly Cloudy,0,2013-01-09 22:56:00
6:56 PM,62.1,54.0,75,30.38,10.0,Calm,Calm,-,N/A,,Scattered Clouds,0,2013-01-09 23:56:00
7:56 PM,57.9,53.1,84,30.40,10.0,Calm,Calm,-,N/A,,Scattered Clouds,0,2013-01-10 00:56:00
8:56 PM,57.2,51.8,82,30.39,10.0,Calm,Calm,-,N/A,,Scattered Clouds,0,2013-01-10 01:56:00
9:56 PM,55.9,52.0,87,30.39,9.0,Calm,Calm,-,N/A,,Overcast,0,2013-01-10 02:56:00
10:56 PM,55.0,51.1,86,30.40,10.0,West,4.6,-,N/A,,Mostly Cloudy,270,2013-01-10 03:56:00
11:56 PM,53.1,50.0,89,30.41,9.0,Calm,Calm,-,N/A,,Mostly Cloudy,0,2013-01-10 04:56:00